Photometre #648[NE_1.6] Paris AOT

File : 20190923_648.hum

23/09/2019,06:32:41,TEMP=16.1,BA=5.60,STAT.A=1.0,ExtBa=13.92
23/09/2019,06:36:36,TEMP=16.5,BA=5.60,STAT.A=1.0,ExtBa=13.86
23/09/2019,06:41:12,TEMP=16.7,BA=5.60,STAT.A=1.0,ExtBa=13.78
23/09/2019,06:46:40,TEMP=16.9,BA=5.60,STAT.A=1.0,ExtBa=13.78
23/09/2019,06:53:17,TEMP=16.7,BA=5.60,STAT.A=1.0,ExtBa=13.88
23/09/2019,07:01:26,TEMP=17.0,BA=5.60,STAT.A=1.0,ExtBa=13.92
23/09/2019,07:11:47,TEMP=17.5,BA=5.60,STAT.B=1.0,ExtBa=13.94
23/09/2019,07:23:26,TEMP=18.4,BA=5.44,STAT.A=1.0,ExtBa=12.89
23/09/2019,07:25:40,TEMP=18.6,BA=5.44,STAT.A=1.0,ExtBa=12.96
23/09/2019,07:28:38,TEMP=18.7,BA=5.44,STAT.A=1.0,ExtBa=13.02
23/09/2019,07:35:49,TEMP=18.8,BA=5.44,STAT.A=1.0,ExtBa=13.31
23/09/2019,07:44:07,TEMP=19.2,BA=5.60,STAT.C=1.0,ExtBa=13.51
23/09/2019,08:02:49,TEMP=20.2,BA=5.44,STAT.A=1.0,ExtBa=12.96
23/09/2019,08:05:23,TEMP=20.5,BA=5.44,STAT.A=1.0,ExtBa=13.03
23/09/2019,08:19:24,TEMP=20.7,BA=5.56,STAT.A=1.0,ExtBa=13.45
23/09/2019,08:36:55,TEMP=21.6,BA=5.60,STAT.A=1.5,ExtBa=13.55
23/09/2019,08:43:50,TEMP=21.6,BA=5.60,STAT.F,ExtBa=13.50
23/09/2019,09:02:01,TEMP=21.9,BA=5.44,STAT.b=1.5
23/09/2019,09:13:48,TEMP=22.0,BA=5.60,STAT.D=1.5,ExtBa=13.40
23/09/2019,09:28:49,TEMP=23.1,BA=5.60,STAT.D=1.5,ExtBa=13.51
23/09/2019,10:02:11,TEMP=24.0,BA=5.44,STAT.b=1.5
23/09/2019,10:13:48,TEMP=23.8,BA=5.56,STAT.D=1.5,ExtBa=13.38
23/09/2019,10:28:49,TEMP=24.7,BA=5.56,STAT.D=1.5,ExtBa=13.49
23/09/2019,10:43:50,TEMP=24.8,BA=5.56,STAT.F,ExtBa=13.48
23/09/2019,11:02:23,TEMP=25.2,BA=5.40,STAT.b=1.5
23/09/2019,11:13:48,TEMP=24.9,BA=5.52,STAT.D=1.5,ExtBa=13.37
23/09/2019,11:28:49,TEMP=25.8,BA=5.52,STAT.D=1.5,ExtBa=13.46
23/09/2019,11:43:50,TEMP=26.1,BA=5.52,STAT.F,ExtBa=13.46
23/09/2019,12:01:54,TEMP=25.7,BA=5.40,STAT.b=1.5
23/09/2019,12:13:48,TEMP=25.7,BA=5.48,STAT.D=1.5,ExtBa=13.34
23/09/2019,12:28:49,TEMP=25.4,BA=5.48,STAT.D=1.5,ExtBa=13.47
23/09/2019,12:43:50,TEMP=25.8,BA=5.48,STAT.F,ExtBa=13.48
23/09/2019,12:58:49,TEMP=25.2,BA=5.40,STAT.D=1.5,ExtBa=13.21
23/09/2019,13:13:49,TEMP=25.9,BA=5.48,STAT.D=1.5,ExtBa=13.47
23/09/2019,13:28:49,TEMP=25.0,BA=5.48,STAT.D=1.5,ExtBa=13.53
23/09/2019,13:43:50,TEMP=24.1,BA=5.48,STAT.F,ExtBa=13.57
23/09/2019,14:02:55,TEMP=23.9,BA=5.36,STAT.b=1.5
23/09/2019,14:13:48,TEMP=23.8,BA=5.48,STAT.D=1.5,ExtBa=13.43
23/09/2019,14:28:48,TEMP=23.2,BA=5.48,STAT.D=1.5,ExtBa=13.52
23/09/2019,14:43:50,TEMP=22.9,BA=5.52,STAT.F,ExtBa=13.53
23/09/2019,14:57:45,TEMP=23.1,BA=5.36,STAT.A=1.5,ExtBa=13.03
23/09/2019,15:08:16,TEMP=22.8,BA=5.44,STAT.A=1.5,ExtBa=13.37
23/09/2019,15:22:17,TEMP=22.8,BA=5.52,STAT.A=1.5,ExtBa=13.46
23/09/2019,15:33:48,TEMP=22.5,BA=5.52,STAT.A=1.5,ExtBa=13.49
23/09/2019,15:43:31,TEMP=22.4,BA=5.52,STAT.C=1.5,ExtBa=13.50
23/09/2019,15:51:49,TEMP=22.3,BA=5.52,STAT.A=1.5,ExtBa=13.52
23/09/2019,15:59:00,TEMP=22.2,BA=5.52,STAT.A=1.5,ExtBa=13.53
23/09/2019,16:05:19,TEMP=22.0,BA=5.40,STAT.A=1.5,ExtBa=13.54
23/09/2019,16:10:53,TEMP=21.9,BA=5.56,STAT.A=1.5,ExtBa=13.51
23/09/2019,16:15:51,TEMP=22.0,BA=5.56,STAT.B=1.5,ExtBa=13.49
23/09/2019,16:26:12,TEMP=21.9,BA=5.56,STAT.A=1.5,ExtBa=13.61
23/09/2019,16:34:21,TEMP=21.7,BA=5.56,STAT.A=1.5,ExtBa=13.65
23/09/2019,16:40:58,TEMP=21.5,BA=5.60,STAT.A=1.5,ExtBa=13.67
23/09/2019,16:46:26,TEMP=21.4,BA=5.60,STAT.A=1.5,ExtBa=13.67
23/09/2019,16:51:02,TEMP=21.4,BA=5.56,STAT.A=1.5,ExtBa=13.66
23/09/2019,16:54:57,TEMP=21.4,BA=5.56,STAT.A=1.5,ExtBa=13.65